sensor_id;sensor_type;location;lat;lon;timestamp;P1;durP1;ratioP1;P2;durP2;ratioP2
67762;SDS011;54566;52.022;5.582;2022-08-25T00:01:54;6.93;;;4.57;;
67762;SDS011;54566;52.022;5.582;2022-08-25T00:04:21;8.77;;;5.10;;
67762;SDS011;54566;52.022;5.582;2022-08-25T00:06:48;5.70;;;4.57;;
67762;SDS011;54566;52.022;5.582;2022-08-25T00:09:15;11.52;;;5.03;;
67762;SDS011;54566;52.022;5.582;2022-08-25T00:11:42;11.93;;;5.22;;
67762;SDS011;54566;52.022;5.582;2022-08-25T00:14:13;5.78;;;5.10;;
67762;SDS011;54566;52.022;5.582;2022-08-25T00:16:39;7.32;;;5.60;;
67762;SDS011;54566;52.022;5.582;2022-08-25T00:19:08;8.38;;;5.70;;
67762;SDS011;54566;52.022;5.582;2022-08-25T00:21:35;7.97;;;5.57;;
67762;SDS011;54566;52.022;5.582;2022-08-25T00:24:01;9.27;;;5.15;;
67762;SDS011;54566;52.022;5.582;2022-08-25T00:26:28;11.90;;;5.30;;
67762;SDS011;54566;52.022;5.582;2022-08-25T00:28:54;13.23;;;5.80;;
67762;SDS011;54566;52.022;5.582;2022-08-25T00:31:21;12.70;;;5.65;;
67762;SDS011;54566;52.022;5.582;2022-08-25T00:33:47;10.70;;;5.72;;
67762;SDS011;54566;52.022;5.582;2022-08-25T00:36:14;10.45;;;6.00;;
67762;SDS011;54566;52.022;5.582;2022-08-25T00:38:40;9.40;;;5.53;;
67762;SDS011;54566;52.022;5.582;2022-08-25T00:41:07;12.50;;;6.25;;
67762;SDS011;54566;52.022;5.582;2022-08-25T00:43:42;11.15;;;6.13;;
67762;SDS011;54566;52.022;5.582;2022-08-25T00:46:10;8.57;;;6.05;;
67762;SDS011;54566;52.022;5.582;2022-08-25T00:48:37;8.52;;;5.97;;
67762;SDS011;54566;52.022;5.582;2022-08-25T00:51:03;7.68;;;5.30;;
67762;SDS011;54566;52.022;5.582;2022-08-25T00:53:32;8.93;;;5.95;;
67762;SDS011;54566;52.022;5.582;2022-08-25T00:55:58;9.05;;;6.57;;
67762;SDS011;54566;52.022;5.582;2022-08-25T00:58:25;8.95;;;6.15;;
67762;SDS011;54566;52.022;5.582;2022-08-25T01:00:52;9.35;;;5.57;;
67762;SDS011;54566;52.022;5.582;2022-08-25T01:03:20;6.82;;;6.13;;
67762;SDS011;54566;52.022;5.582;2022-08-25T01:05:47;10.18;;;5.55;;
67762;SDS011;54566;52.022;5.582;2022-08-25T01:08:13;11.20;;;5.95;;
67762;SDS011;54566;52.022;5.582;2022-08-25T01:10:40;13.68;;;5.90;;
67762;SDS011;54566;52.022;5.582;2022-08-25T01:13:08;8.10;;;5.70;;
67762;SDS011;54566;52.022;5.582;2022-08-25T01:15:36;8.88;;;5.85;;
67762;SDS011;54566;52.022;5.582;2022-08-25T01:18:02;10.00;;;4.97;;
67762;SDS011;54566;52.022;5.582;2022-08-25T01:20:29;9.15;;;6.35;;
67762;SDS011;54566;52.022;5.582;2022-08-25T01:22:56;7.90;;;6.25;;
67762;SDS011;54566;52.022;5.582;2022-08-25T01:27:49;10.75;;;5.78;;
67762;SDS011;54566;52.022;5.582;2022-08-25T01:30:15;11.98;;;6.10;;
67762;SDS011;54566;52.022;5.582;2022-08-25T01:32:41;9.90;;;5.10;;
67762;SDS011;54566;52.022;5.582;2022-08-25T01:35:07;6.82;;;6.13;;
67762;SDS011;54566;52.022;5.582;2022-08-25T01:37:33;9.68;;;5.75;;
67762;SDS011;54566;52.022;5.582;2022-08-25T01:39:59;8.80;;;5.97;;
67762;SDS011;54566;52.022;5.582;2022-08-25T01:45:07;12.75;;;6.05;;
67762;SDS011;54566;52.022;5.582;2022-08-25T01:47:34;10.13;;;5.63;;
67762;SDS011;54566;52.022;5.582;2022-08-25T01:50:00;8.15;;;5.95;;
67762;SDS011;54566;52.022;5.582;2022-08-25T01:54:52;17.65;;;6.25;;
67762;SDS011;54566;52.022;5.582;2022-08-25T01:57:18;9.73;;;5.80;;
67762;SDS011;54566;52.022;5.582;2022-08-25T01:59:45;8.07;;;5.83;;
67762;SDS011;54566;52.022;5.582;2022-08-25T02:02:11;10.48;;;5.80;;
67762;SDS011;54566;52.022;5.582;2022-08-25T02:04:38;6.25;;;4.97;;
67762;SDS011;54566;52.022;5.582;2022-08-25T02:07:05;11.25;;;5.40;;
67762;SDS011;54566;52.022;5.582;2022-08-25T02:09:31;9.23;;;5.70;;
67762;SDS011;54566;52.022;5.582;2022-08-25T02:12:00;12.15;;;5.63;;
67762;SDS011;54566;52.022;5.582;2022-08-25T02:14:26;10.25;;;5.65;;
67762;SDS011;54566;52.022;5.582;2022-08-25T02:16:53;11.48;;;5.70;;
67762;SDS011;54566;52.022;5.582;2022-08-25T02:19:20;9.70;;;5.40;;
67762;SDS011;54566;52.022;5.582;2022-08-25T02:21:46;13.25;;;5.47;;
67762;SDS011;54566;52.022;5.582;2022-08-25T02:24:13;8.85;;;5.97;;
67762;SDS011;54566;52.022;5.582;2022-08-25T02:26:39;9.48;;;5.28;;
67762;SDS011;54566;52.022;5.582;2022-08-25T02:29:06;11.85;;;5.38;;
67762;SDS011;54566;52.022;5.582;2022-08-25T02:31:33;9.43;;;5.78;;
67762;SDS011;54566;52.022;5.582;2022-08-25T02:33:59;9.60;;;5.90;;
67762;SDS011;54566;52.022;5.582;2022-08-25T02:36:26;10.82;;;5.25;;
67762;SDS011;54566;52.022;5.582;2022-08-25T02:38:52;10.90;;;5.75;;
67762;SDS011;54566;52.022;5.582;2022-08-25T02:41:21;8.63;;;5.50;;
67762;SDS011;54566;52.022;5.582;2022-08-25T02:46:23;11.20;;;5.35;;
67762;SDS011;54566;52.022;5.582;2022-08-25T02:48:49;12.93;;;5.15;;
67762;SDS011;54566;52.022;5.582;2022-08-25T02:51:17;9.07;;;5.47;;
67762;SDS011;54566;52.022;5.582;2022-08-25T02:53:43;11.43;;;5.68;;
67762;SDS011;54566;52.022;5.582;2022-08-25T02:56:11;9.40;;;5.70;;
67762;SDS011;54566;52.022;5.582;2022-08-25T02:58:37;7.63;;;5.00;;
67762;SDS011;54566;52.022;5.582;2022-08-25T03:01:04;12.50;;;5.13;;
67762;SDS011;54566;52.022;5.582;2022-08-25T03:03:32;12.23;;;5.28;;
67762;SDS011;54566;52.022;5.582;2022-08-25T03:05:58;8.88;;;5.32;;
67762;SDS011;54566;52.022;5.582;2022-08-25T03:08:27;13.55;;;5.28;;
67762;SDS011;54566;52.022;5.582;2022-08-25T03:10:56;14.13;;;4.93;;
67762;SDS011;54566;52.022;5.582;2022-08-25T03:13:22;10.43;;;5.00;;
67762;SDS011;54566;52.022;5.582;2022-08-25T03:15:48;14.00;;;4.97;;
67762;SDS011;54566;52.022;5.582;2022-08-25T03:18:14;9.70;;;5.03;;
67762;SDS011;54566;52.022;5.582;2022-08-25T03:20:40;13.90;;;4.60;;
67762;SDS011;54566;52.022;5.582;2022-08-25T03:23:06;10.40;;;4.07;;
67762;SDS011;54566;52.022;5.582;2022-08-25T03:25:32;8.90;;;3.80;;
67762;SDS011;54566;52.022;5.582;2022-08-25T03:28:17;13.57;;;4.00;;
67762;SDS011;54566;52.022;5.582;2022-08-25T03:30:44;5.28;;;3.60;;
67762;SDS011;54566;52.022;5.582;2022-08-25T03:33:10;5.70;;;3.83;;
67762;SDS011;54566;52.022;5.582;2022-08-25T03:35:36;7.20;;;4.00;;
67762;SDS011;54566;52.022;5.582;2022-08-25T03:38:02;17.33;;;3.90;;
67762;SDS011;54566;52.022;5.582;2022-08-25T03:40:28;5.93;;;3.50;;
67762;SDS011;54566;52.022;5.582;2022-08-25T03:42:54;9.60;;;3.78;;
67762;SDS011;54566;52.022;5.582;2022-08-25T03:45:21;10.20;;;3.80;;
67762;SDS011;54566;52.022;5.582;2022-08-25T03:47:48;9.30;;;3.70;;
67762;SDS011;54566;52.022;5.582;2022-08-25T03:50:14;9.75;;;3.63;;
67762;SDS011;54566;52.022;5.582;2022-08-25T03:52:41;6.28;;;3.35;;
67762;SDS011;54566;52.022;5.582;2022-08-25T03:55:08;6.22;;;3.25;;
67762;SDS011;54566;52.022;5.582;2022-08-25T03:57:35;18.27;;;4.35;;
67762;SDS011;54566;52.022;5.582;2022-08-25T04:00:04;7.22;;;3.15;;
67762;SDS011;54566;52.022;5.582;2022-08-25T04:02:30;8.77;;;4.07;;
67762;SDS011;54566;52.022;5.582;2022-08-25T04:04:57;7.67;;;3.53;;
67762;SDS011;54566;52.022;5.582;2022-08-25T04:07:23;11.65;;;3.60;;
67762;SDS011;54566;52.022;5.582;2022-08-25T04:09:50;7.25;;;3.17;;
67762;SDS011;54566;52.022;5.582;2022-08-25T04:12:18;10.73;;;3.78;;
67762;SDS011;54566;52.022;5.582;2022-08-25T04:14:44;12.93;;;3.47;;
67762;SDS011;54566;52.022;5.582;2022-08-25T04:17:11;18.53;;;4.47;;
67762;SDS011;54566;52.022;5.582;2022-08-25T04:19:38;7.35;;;3.80;;
67762;SDS011;54566;52.022;5.582;2022-08-25T04:22:04;12.05;;;3.72;;
67762;SDS011;54566;52.022;5.582;2022-08-25T04:24:30;11.88;;;4.28;;
67762;SDS011;54566;52.022;5.582;2022-08-25T04:26:56;14.68;;;4.53;;
67762;SDS011;54566;52.022;5.582;2022-08-25T04:29:23;5.68;;;3.63;;
67762;SDS011;54566;52.022;5.582;2022-08-25T04:31:49;8.75;;;3.83;;
67762;SDS011;54566;52.022;5.582;2022-08-25T04:34:16;13.32;;;4.30;;
67762;SDS011;54566;52.022;5.582;2022-08-25T04:36:42;8.07;;;4.03;;
67762;SDS011;54566;52.022;5.582;2022-08-25T04:39:08;11.32;;;3.60;;
67762;SDS011;54566;52.022;5.582;2022-08-25T04:41:34;17.52;;;4.00;;
67762;SDS011;54566;52.022;5.582;2022-08-25T04:44:00;10.90;;;4.10;;
67762;SDS011;54566;52.022;5.582;2022-08-25T04:46:28;15.27;;;4.10;;
67762;SDS011;54566;52.022;5.582;2022-08-25T04:48:55;7.65;;;3.85;;
67762;SDS011;54566;52.022;5.582;2022-08-25T04:51:22;14.98;;;4.50;;
67762;SDS011;54566;52.022;5.582;2022-08-25T04:53:49;19.97;;;4.40;;
67762;SDS011;54566;52.022;5.582;2022-08-25T04:56:15;9.38;;;4.30;;
67762;SDS011;54566;52.022;5.582;2022-08-25T04:58:42;11.43;;;4.15;;
67762;SDS011;54566;52.022;5.582;2022-08-25T05:01:12;8.95;;;4.07;;
67762;SDS011;54566;52.022;5.582;2022-08-25T05:03:41;12.57;;;3.95;;
67762;SDS011;54566;52.022;5.582;2022-08-25T05:06:08;10.63;;;4.50;;
67762;SDS011;54566;52.022;5.582;2022-08-25T05:08:34;8.65;;;3.92;;
67762;SDS011;54566;52.022;5.582;2022-08-25T05:11:06;15.88;;;4.53;;
67762;SDS011;54566;52.022;5.582;2022-08-25T05:13:33;11.02;;;4.53;;
67762;SDS011;54566;52.022;5.582;2022-08-25T05:15:59;12.82;;;4.45;;
67762;SDS011;54566;52.022;5.582;2022-08-25T05:18:26;12.85;;;4.38;;
67762;SDS011;54566;52.022;5.582;2022-08-25T05:20:53;10.95;;;4.15;;
67762;SDS011;54566;52.022;5.582;2022-08-25T05:23:23;9.90;;;3.63;;
67762;SDS011;54566;52.022;5.582;2022-08-25T05:25:49;6.97;;;3.75;;
67762;SDS011;54566;52.022;5.582;2022-08-25T05:28:16;17.55;;;4.25;;
67762;SDS011;54566;52.022;5.582;2022-08-25T05:30:43;10.95;;;4.18;;
67762;SDS011;54566;52.022;5.582;2022-08-25T05:33:09;21.55;;;4.35;;
67762;SDS011;54566;52.022;5.582;2022-08-25T05:35:36;7.93;;;3.80;;
67762;SDS011;54566;52.022;5.582;2022-08-25T05:38:02;8.98;;;3.50;;
67762;SDS011;54566;52.022;5.582;2022-08-25T05:40:28;18.50;;;4.70;;
67762;SDS011;54566;52.022;5.582;2022-08-25T05:42:54;10.23;;;4.13;;
67762;SDS011;54566;52.022;5.582;2022-08-25T05:45:20;12.63;;;3.90;;
67762;SDS011;54566;52.022;5.582;2022-08-25T05:47:47;14.65;;;3.85;;
67762;SDS011;54566;52.022;5.582;2022-08-25T05:50:13;10.00;;;3.60;;
67762;SDS011;54566;52.022;5.582;2022-08-25T05:52:39;10.05;;;3.58;;
67762;SDS011;54566;52.022;5.582;2022-08-25T05:55:06;13.48;;;3.90;;
67762;SDS011;54566;52.022;5.582;2022-08-25T05:57:32;18.50;;;3.88;;
67762;SDS011;54566;52.022;5.582;2022-08-25T05:59:58;12.50;;;3.88;;
67762;SDS011;54566;52.022;5.582;2022-08-25T06:02:24;5.82;;;3.00;;
67762;SDS011;54566;52.022;5.582;2022-08-25T06:05:16;13.75;;;3.58;;
67762;SDS011;54566;52.022;5.582;2022-08-25T06:07:42;13.27;;;3.80;;
67762;SDS011;54566;52.022;5.582;2022-08-25T06:10:09;12.45;;;4.03;;
67762;SDS011;54566;52.022;5.582;2022-08-25T06:12:36;18.15;;;3.65;;
67762;SDS011;54566;52.022;5.582;2022-08-25T06:15:02;30.35;;;3.95;;
67762;SDS011;54566;52.022;5.582;2022-08-25T06:17:29;19.73;;;3.58;;
67762;SDS011;54566;52.022;5.582;2022-08-25T06:19:55;10.40;;;3.72;;
67762;SDS011;54566;52.022;5.582;2022-08-25T06:22:21;12.85;;;3.50;;
67762;SDS011;54566;52.022;5.582;2022-08-25T06:24:49;12.55;;;3.20;;
67762;SDS011;54566;52.022;5.582;2022-08-25T06:27:15;8.73;;;3.30;;
67762;SDS011;54566;52.022;5.582;2022-08-25T06:29:41;11.90;;;3.58;;
67762;SDS011;54566;52.022;5.582;2022-08-25T06:32:07;11.75;;;3.22;;
67762;SDS011;54566;52.022;5.582;2022-08-25T06:34:33;12.88;;;3.45;;
67762;SDS011;54566;52.022;5.582;2022-08-25T06:37:00;15.50;;;3.22;;
67762;SDS011;54566;52.022;5.582;2022-08-25T06:39:26;7.73;;;3.20;;
67762;SDS011;54566;52.022;5.582;2022-08-25T06:41:53;11.65;;;3.45;;
67762;SDS011;54566;52.022;5.582;2022-08-25T06:44:20;8.90;;;3.42;;
67762;SDS011;54566;52.022;5.582;2022-08-25T06:46:46;8.77;;;3.40;;
67762;SDS011;54566;52.022;5.582;2022-08-25T06:49:12;10.63;;;3.50;;
67762;SDS011;54566;52.022;5.582;2022-08-25T06:51:38;14.82;;;3.63;;
67762;SDS011;54566;52.022;5.582;2022-08-25T06:54:06;9.52;;;3.38;;
67762;SDS011;54566;52.022;5.582;2022-08-25T06:56:34;5.65;;;3.28;;
67762;SDS011;54566;52.022;5.582;2022-08-25T06:59:00;20.65;;;3.67;;
67762;SDS011;54566;52.022;5.582;2022-08-25T07:01:27;24.90;;;4.30;;
67762;SDS011;54566;52.022;5.582;2022-08-25T07:03:54;7.97;;;3.17;;
67762;SDS011;54566;52.022;5.582;2022-08-25T07:06:23;14.70;;;3.50;;
67762;SDS011;54566;52.022;5.582;2022-08-25T07:08:50;11.43;;;3.33;;
67762;SDS011;54566;52.022;5.582;2022-08-25T07:11:16;7.05;;;3.30;;
67762;SDS011;54566;52.022;5.582;2022-08-25T07:13:42;17.15;;;3.67;;
67762;SDS011;54566;52.022;5.582;2022-08-25T07:16:08;16.30;;;3.25;;
67762;SDS011;54566;52.022;5.582;2022-08-25T07:18:39;7.60;;;3.22;;
67762;SDS011;54566;52.022;5.582;2022-08-25T07:21:05;11.65;;;2.80;;
67762;SDS011;54566;52.022;5.582;2022-08-25T07:23:31;16.77;;;3.42;;
67762;SDS011;54566;52.022;5.582;2022-08-25T07:26:06;10.35;;;3.38;;
67762;SDS011;54566;52.022;5.582;2022-08-25T07:28:32;9.05;;;3.17;;
67762;SDS011;54566;52.022;5.582;2022-08-25T07:30:58;19.35;;;3.30;;
67762;SDS011;54566;52.022;5.582;2022-08-25T07:33:25;16.90;;;3.53;;
67762;SDS011;54566;52.022;5.582;2022-08-25T07:35:51;7.47;;;3.20;;
67762;SDS011;54566;52.022;5.582;2022-08-25T07:38:18;15.30;;;3.78;;
67762;SDS011;54566;52.022;5.582;2022-08-25T07:40:44;5.85;;;3.00;;
67762;SDS011;54566;52.022;5.582;2022-08-25T07:43:10;13.60;;;3.22;;
67762;SDS011;54566;52.022;5.582;2022-08-25T07:45:38;7.28;;;2.75;;
67762;SDS011;54566;52.022;5.582;2022-08-25T07:50:30;7.53;;;3.28;;
67762;SDS011;54566;52.022;5.582;2022-08-25T07:52:56;9.65;;;3.25;;
67762;SDS011;54566;52.022;5.582;2022-08-25T07:55:26;13.45;;;3.55;;
67762;SDS011;54566;52.022;5.582;2022-08-25T07:57:53;8.50;;;2.90;;
67762;SDS011;54566;52.022;5.582;2022-08-25T08:00:19;12.32;;;3.40;;
67762;SDS011;54566;52.022;5.582;2022-08-25T08:02:45;8.30;;;3.33;;
67762;SDS011;54566;52.022;5.582;2022-08-25T08:05:12;10.82;;;3.10;;
67762;SDS011;54566;52.022;5.582;2022-08-25T08:07:38;10.10;;;3.53;;
67762;SDS011;54566;52.022;5.582;2022-08-25T08:10:05;11.50;;;3.67;;
67762;SDS011;54566;52.022;5.582;2022-08-25T08:12:32;14.13;;;3.63;;
67762;SDS011;54566;52.022;5.582;2022-08-25T08:14:58;16.80;;;3.20;;
67762;SDS011;54566;52.022;5.582;2022-08-25T08:17:24;15.13;;;3.70;;
67762;SDS011;54566;52.022;5.582;2022-08-25T08:19:51;11.93;;;3.10;;
67762;SDS011;54566;52.022;5.582;2022-08-25T08:22:17;15.02;;;3.70;;
67762;SDS011;54566;52.022;5.582;2022-08-25T08:24:43;5.78;;;3.70;;
67762;SDS011;54566;52.022;5.582;2022-08-25T08:27:12;8.02;;;3.22;;
67762;SDS011;54566;52.022;5.582;2022-08-25T08:29:39;16.35;;;4.72;;
67762;SDS011;54566;52.022;5.582;2022-08-25T08:32:06;15.93;;;3.70;;
67762;SDS011;54566;52.022;5.582;2022-08-25T08:34:32;14.82;;;3.30;;
67762;SDS011;54566;52.022;5.582;2022-08-25T08:36:58;9.32;;;3.13;;
67762;SDS011;54566;52.022;5.582;2022-08-25T08:39:25;12.57;;;3.20;;
67762;SDS011;54566;52.022;5.582;2022-08-25T08:42:06;10.68;;;3.17;;
67762;SDS011;54566;52.022;5.582;2022-08-25T08:50:02;9.30;;;2.63;;
67762;SDS011;54566;52.022;5.582;2022-08-25T08:55:02;9.35;;;3.08;;
67762;SDS011;54566;52.022;5.582;2022-08-25T08:57:29;11.50;;;3.22;;
67762;SDS011;54566;52.022;5.582;2022-08-25T08:59:59;13.73;;;3.30;;
67762;SDS011;54566;52.022;5.582;2022-08-25T09:02:27;5.40;;;3.00;;
67762;SDS011;54566;52.022;5.582;2022-08-25T09:04:56;13.38;;;3.40;;
67762;SDS011;54566;52.022;5.582;2022-08-25T09:07:34;15.10;;;3.10;;
67762;SDS011;54566;52.022;5.582;2022-08-25T09:12:43;13.93;;;3.00;;
67762;SDS011;54566;52.022;5.582;2022-08-25T09:17:56;12.27;;;2.80;;
67762;SDS011;54566;52.022;5.582;2022-08-25T09:23:02;21.40;;;3.17;;
67762;SDS011;54566;52.022;5.582;2022-08-25T09:30:44;21.30;;;3.22;;
67762;SDS011;54566;52.022;5.582;2022-08-25T09:33:14;20.98;;;3.45;;
67762;SDS011;54566;52.022;5.582;2022-08-25T09:35:43;12.90;;;2.95;;
67762;SDS011;54566;52.022;5.582;2022-08-25T09:38:11;19.63;;;3.10;;
67762;SDS011;54566;52.022;5.582;2022-08-25T09:40:46;9.15;;;3.03;;
67762;SDS011;54566;52.022;5.582;2022-08-25T09:43:20;9.15;;;2.95;;
67762;SDS011;54566;52.022;5.582;2022-08-25T09:45:48;9.70;;;3.05;;
67762;SDS011;54566;52.022;5.582;2022-08-25T09:48:25;13.27;;;2.78;;
67762;SDS011;54566;52.022;5.582;2022-08-25T09:53:17;9.93;;;2.42;;
67762;SDS011;54566;52.022;5.582;2022-08-25T09:55:45;8.77;;;2.87;;
67762;SDS011;54566;52.022;5.582;2022-08-25T09:58:18;9.73;;;2.80;;
67762;SDS011;54566;52.022;5.582;2022-08-25T10:00:59;11.32;;;2.92;;
67762;SDS011;54566;52.022;5.582;2022-08-25T10:03:25;20.08;;;2.90;;
67762;SDS011;54566;52.022;5.582;2022-08-25T10:11:00;17.70;;;2.65;;
67762;SDS011;54566;52.022;5.582;2022-08-25T10:13:35;7.80;;;2.72;;
67762;SDS011;54566;52.022;5.582;2022-08-25T10:16:04;9.85;;;2.63;;
67762;SDS011;54566;52.022;5.582;2022-08-25T10:18:31;11.63;;;2.72;;
67762;SDS011;54566;52.022;5.582;2022-08-25T10:21:10;17.42;;;2.72;;
67762;SDS011;54566;52.022;5.582;2022-08-25T10:23:58;6.82;;;2.47;;
67762;SDS011;54566;52.022;5.582;2022-08-25T10:32:14;7.35;;;2.40;;
67762;SDS011;54566;52.022;5.582;2022-08-25T10:34:46;7.07;;;2.20;;
67762;SDS011;54566;52.022;5.582;2022-08-25T10:37:17;8.80;;;2.20;;
67762;SDS011;54566;52.022;5.582;2022-08-25T10:39:55;8.63;;;2.15;;
67762;SDS011;54566;52.022;5.582;2022-08-25T10:42:31;7.53;;;2.10;;
67762;SDS011;54566;52.022;5.582;2022-08-25T10:57:52;14.93;;;2.30;;
67762;SDS011;54566;52.022;5.582;2022-08-25T11:00:21;5.35;;;1.90;;
67762;SDS011;54566;52.022;5.582;2022-08-25T11:03:05;9.43;;;2.10;;
67762;SDS011;54566;52.022;5.582;2022-08-25T11:05:42;10.68;;;2.30;;
67762;SDS011;54566;52.022;5.582;2022-08-25T11:11:00;3.78;;;1.95;;
67762;SDS011;54566;52.022;5.582;2022-08-25T11:15:59;5.55;;;2.08;;
67762;SDS011;54566;52.022;5.582;2022-08-25T11:18:26;5.22;;;2.03;;
67762;SDS011;54566;52.022;5.582;2022-08-25T11:21:01;8.32;;;2.03;;
67762;SDS011;54566;52.022;5.582;2022-08-25T11:23:35;4.78;;;2.03;;
67762;SDS011;54566;52.022;5.582;2022-08-25T11:26:07;5.18;;;2.00;;
67762;SDS011;54566;52.022;5.582;2022-08-25T11:31:18;6.18;;;1.90;;
67762;SDS011;54566;52.022;5.582;2022-08-25T11:33:44;3.55;;;1.90;;
67762;SDS011;54566;52.022;5.582;2022-08-25T11:36:29;15.37;;;2.27;;
67762;SDS011;54566;52.022;5.582;2022-08-25T11:41:40;7.75;;;1.92;;
67762;SDS011;54566;52.022;5.582;2022-08-25T11:50:06;5.32;;;2.33;;
67762;SDS011;54566;52.022;5.582;2022-08-25T11:52:20;5.82;;;2.20;;
67762;SDS011;54566;52.022;5.582;2022-08-25T11:54:52;5.07;;;2.25;;
67762;SDS011;54566;52.022;5.582;2022-08-25T11:57:19;4.05;;;2.05;;
67762;SDS011;54566;52.022;5.582;2022-08-25T12:02:32;6.72;;;1.80;;
67762;SDS011;54566;52.022;5.582;2022-08-25T12:05:00;12.35;;;2.10;;
67762;SDS011;54566;52.022;5.582;2022-08-25T12:07:27;6.18;;;2.17;;
67762;SDS011;54566;52.022;5.582;2022-08-25T12:12:29;9.05;;;2.13;;
67762;SDS011;54566;52.022;5.582;2022-08-25T12:15:53;9.50;;;2.05;;
67762;SDS011;54566;52.022;5.582;2022-08-25T12:17:42;8.63;;;2.25;;
67762;SDS011;54566;52.022;5.582;2022-08-25T12:20:09;2.08;;;1.70;;
67762;SDS011;54566;52.022;5.582;2022-08-25T12:25:03;5.35;;;1.90;;
67762;SDS011;54566;52.022;5.582;2022-08-25T12:30:18;13.85;;;1.83;;
67762;SDS011;54566;52.022;5.582;2022-08-25T12:35:21;5.63;;;1.80;;
67762;SDS011;54566;52.022;5.582;2022-08-25T12:45:45;7.82;;;1.80;;
67762;SDS011;54566;52.022;5.582;2022-08-25T12:50:58;8.25;;;2.13;;
67762;SDS011;54566;52.022;5.582;2022-08-25T12:58:46;5.18;;;1.90;;
67762;SDS011;54566;52.022;5.582;2022-08-25T13:06:21;11.30;;;2.17;;
67762;SDS011;54566;52.022;5.582;2022-08-25T13:09:04;6.25;;;1.80;;
67762;SDS011;54566;52.022;5.582;2022-08-25T13:11:38;5.07;;;1.48;;
67762;SDS011;54566;52.022;5.582;2022-08-25T13:16:55;4.30;;;1.90;;
67762;SDS011;54566;52.022;5.582;2022-08-25T13:19:21;8.77;;;2.17;;
67762;SDS011;54566;52.022;5.582;2022-08-25T13:21:48;4.70;;;2.10;;
67762;SDS011;54566;52.022;5.582;2022-08-25T13:26:43;9.40;;;2.00;;
67762;SDS011;54566;52.022;5.582;2022-08-25T13:29:15;10.13;;;2.10;;
67762;SDS011;54566;52.022;5.582;2022-08-25T13:32:23;6.18;;;1.70;;
67762;SDS011;54566;52.022;5.582;2022-08-25T13:34:37;4.28;;;2.10;;
67762;SDS011;54566;52.022;5.582;2022-08-25T13:37:24;5.03;;;1.80;;
67762;SDS011;54566;52.022;5.582;2022-08-25T13:42:38;5.23;;;2.10;;
67762;SDS011;54566;52.022;5.582;2022-08-25T13:45:05;8.32;;;2.30;;
67762;SDS011;54566;52.022;5.582;2022-08-25T13:52:40;4.15;;;2.33;;
67762;SDS011;54566;52.022;5.582;2022-08-25T13:55:06;4.63;;;2.07;;
67762;SDS011;54566;52.022;5.582;2022-08-25T13:57:32;7.28;;;1.75;;
67762;SDS011;54566;52.022;5.582;2022-08-25T14:00:06;4.88;;;2.10;;
67762;SDS011;54566;52.022;5.582;2022-08-25T14:05:06;4.00;;;2.03;;
67762;SDS011;54566;52.022;5.582;2022-08-25T14:07:32;12.43;;;2.10;;
67762;SDS011;54566;52.022;5.582;2022-08-25T14:09:59;15.13;;;2.30;;
67762;SDS011;54566;52.022;5.582;2022-08-25T14:14:58;2.78;;;1.60;;
67762;SDS011;54566;52.022;5.582;2022-08-25T14:17:24;13.13;;;2.25;;
67762;SDS011;54566;52.022;5.582;2022-08-25T14:19:50;4.03;;;2.03;;
67762;SDS011;54566;52.022;5.582;2022-08-25T14:22:16;4.00;;;1.63;;
67762;SDS011;54566;52.022;5.582;2022-08-25T14:24:42;5.60;;;1.60;;
67762;SDS011;54566;52.022;5.582;2022-08-25T14:27:08;6.23;;;2.07;;
67762;SDS011;54566;52.022;5.582;2022-08-25T14:29:34;10.73;;;2.50;;
67762;SDS011;54566;52.022;5.582;2022-08-25T14:32:00;6.87;;;1.73;;
67762;SDS011;54566;52.022;5.582;2022-08-25T14:34:28;4.60;;;2.00;;
67762;SDS011;54566;52.022;5.582;2022-08-25T14:36:55;4.68;;;2.03;;
67762;SDS011;54566;52.022;5.582;2022-08-25T14:39:23;8.15;;;1.92;;
67762;SDS011;54566;52.022;5.582;2022-08-25T14:41:49;5.13;;;1.75;;
67762;SDS011;54566;52.022;5.582;2022-08-25T14:44:16;6.37;;;2.30;;
67762;SDS011;54566;52.022;5.582;2022-08-25T14:46:43;5.93;;;2.10;;
67762;SDS011;54566;52.022;5.582;2022-08-25T14:49:11;8.25;;;2.30;;
67762;SDS011;54566;52.022;5.582;2022-08-25T14:51:40;5.72;;;2.00;;
67762;SDS011;54566;52.022;5.582;2022-08-25T14:54:09;4.53;;;1.90;;
67762;SDS011;54566;52.022;5.582;2022-08-25T14:56:37;6.68;;;1.98;;
67762;SDS011;54566;52.022;5.582;2022-08-25T14:59:04;5.07;;;1.92;;
67762;SDS011;54566;52.022;5.582;2022-08-25T15:01:30;6.00;;;2.00;;
67762;SDS011;54566;52.022;5.582;2022-08-25T15:04:00;10.07;;;2.00;;
67762;SDS011;54566;52.022;5.582;2022-08-25T15:06:26;3.17;;;1.80;;
67762;SDS011;54566;52.022;5.582;2022-08-25T15:08:53;6.18;;;2.00;;
67762;SDS011;54566;52.022;5.582;2022-08-25T15:11:41;6.10;;;1.88;;
67762;SDS011;54566;52.022;5.582;2022-08-25T15:14:09;6.00;;;2.10;;
67762;SDS011;54566;52.022;5.582;2022-08-25T15:16:36;6.15;;;1.90;;
67762;SDS011;54566;52.022;5.582;2022-08-25T15:19:06;2.88;;;1.73;;
67762;SDS011;54566;52.022;5.582;2022-08-25T15:21:33;7.78;;;1.90;;
67762;SDS011;54566;52.022;5.582;2022-08-25T15:23:59;4.40;;;1.92;;
67762;SDS011;54566;52.022;5.582;2022-08-25T15:26:25;6.77;;;2.10;;
67762;SDS011;54566;52.022;5.582;2022-08-25T15:28:52;5.63;;;1.98;;
67762;SDS011;54566;52.022;5.582;2022-08-25T15:31:19;8.10;;;1.90;;
67762;SDS011;54566;52.022;5.582;2022-08-25T15:33:46;6.05;;;1.90;;
67762;SDS011;54566;52.022;5.582;2022-08-25T15:36:13;4.67;;;1.70;;
67762;SDS011;54566;52.022;5.582;2022-08-25T15:38:40;3.95;;;2.00;;
67762;SDS011;54566;52.022;5.582;2022-08-25T15:41:10;5.93;;;2.13;;
67762;SDS011;54566;52.022;5.582;2022-08-25T15:46:03;3.35;;;1.65;;
67762;SDS011;54566;52.022;5.582;2022-08-25T15:48:30;7.88;;;2.10;;
67762;SDS011;54566;52.022;5.582;2022-08-25T15:50:57;7.68;;;1.95;;
67762;SDS011;54566;52.022;5.582;2022-08-25T15:53:25;7.82;;;2.17;;
67762;SDS011;54566;52.022;5.582;2022-08-25T15:55:52;6.70;;;1.85;;
67762;SDS011;54566;52.022;5.582;2022-08-25T15:58:18;7.63;;;1.90;;
67762;SDS011;54566;52.022;5.582;2022-08-25T16:00:45;10.05;;;2.15;;
67762;SDS011;54566;52.022;5.582;2022-08-25T16:05:41;3.33;;;2.00;;
67762;SDS011;54566;52.022;5.582;2022-08-25T16:08:08;4.85;;;2.00;;
67762;SDS011;54566;52.022;5.582;2022-08-25T16:10:34;7.93;;;2.15;;
67762;SDS011;54566;52.022;5.582;2022-08-25T16:15:27;7.18;;;2.17;;
67762;SDS011;54566;52.022;5.582;2022-08-25T16:17:53;4.10;;;1.90;;
67762;SDS011;54566;52.022;5.582;2022-08-25T16:20:19;3.05;;;2.00;;
67762;SDS011;54566;52.022;5.582;2022-08-25T16:22:47;5.63;;;1.70;;
67762;SDS011;54566;52.022;5.582;2022-08-25T16:25:14;5.37;;;1.90;;
67762;SDS011;54566;52.022;5.582;2022-08-25T16:27:40;4.68;;;2.00;;
67762;SDS011;54566;52.022;5.582;2022-08-25T16:30:09;8.03;;;1.80;;
67762;SDS011;54566;52.022;5.582;2022-08-25T16:32:36;9.50;;;1.95;;
67762;SDS011;54566;52.022;5.582;2022-08-25T16:35:03;6.35;;;2.08;;
67762;SDS011;54566;52.022;5.582;2022-08-25T16:37:31;9.45;;;2.30;;
67762;SDS011;54566;52.022;5.582;2022-08-25T16:39:57;6.15;;;1.90;;
67762;SDS011;54566;52.022;5.582;2022-08-25T16:42:23;6.77;;;1.90;;
67762;SDS011;54566;52.022;5.582;2022-08-25T16:44:49;6.73;;;1.73;;
67762;SDS011;54566;52.022;5.582;2022-08-25T16:47:15;6.50;;;2.10;;
67762;SDS011;54566;52.022;5.582;2022-08-25T16:49:41;8.50;;;2.10;;
67762;SDS011;54566;52.022;5.582;2022-08-25T16:52:07;8.68;;;2.00;;
67762;SDS011;54566;52.022;5.582;2022-08-25T16:54:51;12.63;;;2.35;;
67762;SDS011;54566;52.022;5.582;2022-08-25T17:00:31;4.43;;;2.15;;
67762;SDS011;54566;52.022;5.582;2022-08-25T17:02:57;5.43;;;1.80;;
67762;SDS011;54566;52.022;5.582;2022-08-25T17:08:08;7.53;;;1.90;;
67762;SDS011;54566;52.022;5.582;2022-08-25T17:13:57;9.70;;;2.38;;